KROA/ROA METAR and TAF weather

Enter ICAO airport designator
Station Type Date Time Source
KROA METAR 2020/04/01 22:54 UTC NOAA

KROA 012254Z 30017G25KT 10SM FEW042 BKN080 11/02 A2989 RMK AO2 SLP122 T01110022


Station Type Date Time Source
KROA Decoded METAR 2020/04/01 22:54 UTC NOAA

ROANOKE REGIONAL AIRPORT, VA, United States (KROA) 37-19N 079-58W 362M
Apr 01, 2020 - 06:54 PM EDT / 2020.04.01 2254 UTC
Wind: from the WNW (300 degrees) at 20 MPH (17 KT) gusting to 29 MPH (25 KT):0
Visibility: 10 mile(s):0
Sky conditions: mostly cloudy
Temperature: 52.0 F (11.1 C)
Dew Point: 36.0 F (2.2 C)
Relative Humidity: 54%
Pressure (altimeter): 29.89 in. Hg (1012 hPa)
ob: KROA 012254Z 30017G25KT 10SM FEW042 BKN080 11/02 A2989 RMK AO2 SLP122 T01110022
cycle: 23

Station Type Date Time Source
KROA TAF 2020/04/01 18:24 UTC NOAA

TAF KROA 011721Z 0118/0218 34009G19KT P6SM BKN040
TEMPO 0118/0120 4SM -SHRA OVC020
FM012000 31009KT P6SM VCSH BKN045
FM020900 31007KT P6SM SCT150
FM021400 31010G20KT P6SM SKC

Example: see airport list